createdAt,value
2022-08-07T00:02:36.593Z,100227.94
2022-08-07T00:04:44.751Z,100227.50
2022-08-07T00:07:09.374Z,100232.00
2022-08-07T00:09:33.759Z,100232.44
2022-08-07T00:11:59.075Z,100231.53
2022-08-07T00:14:25.208Z,100235.41
2022-08-07T00:16:48.667Z,100237.13
2022-08-07T00:19:21.527Z,100231.13
2022-08-07T00:21:56.475Z,100230.31
2022-08-07T00:24:20.811Z,100225.13
2022-08-07T00:26:58.970Z,100220.22
2022-08-07T00:29:31.411Z,100212.97
2022-08-07T00:31:55.393Z,100207.28
2022-08-07T00:34:18.447Z,100218.22
2022-08-07T00:36:44.856Z,100212.34
2022-08-07T00:39:07.927Z,100207.66
2022-08-07T00:41:45.263Z,100206.03
2022-08-07T00:44:16.941Z,100206.03
2022-08-07T00:46:41.802Z,100214.16
2022-08-07T00:49:06.526Z,100222.69
2022-08-07T00:51:58.399Z,100213.03
2022-08-07T00:54:15.109Z,100210.63
2022-08-07T00:56:44.644Z,100207.25
2022-08-07T00:59:12.668Z,100211.72
2022-08-07T01:01:41.524Z,100204.19
2022-08-07T01:04:09.402Z,100206.94
2022-08-07T01:06:33.706Z,100213.53
2022-08-07T01:09:00.711Z,100217.47
2022-08-07T01:12:10.184Z,100208.56
2022-08-07T01:14:07.020Z,100205.72
2022-08-07T01:16:31.865Z,100205.28
2022-08-07T01:18:55.935Z,100203.41
2022-08-07T01:21:26.083Z,100204.16
2022-08-07T01:23:53.174Z,100203.16
2022-08-07T01:26:16.798Z,100191.78
2022-08-07T01:28:45.719Z,100199.41
2022-08-07T01:31:11.025Z,100201.41
2022-08-07T01:33:55.816Z,100203.75
2022-08-07T01:36:33.880Z,100209.13
2022-08-07T01:39:10.189Z,100201.97
2022-08-07T01:41:35.629Z,100207.09
2022-08-07T01:43:59.989Z,100210.00
2022-08-07T01:46:25.906Z,100203.19
2022-08-07T01:48:50.950Z,100205.38
2022-08-07T01:52:02.471Z,100206.53
2022-08-07T01:54:12.594Z,100202.16
2022-08-07T01:56:43.007Z,100206.63
2022-08-07T01:59:21.460Z,100197.53
2022-08-07T02:02:00.170Z,100202.31
2022-08-07T02:04:28.809Z,100205.69
2022-08-07T02:06:57.381Z,100197.41
2022-08-07T02:09:51.745Z,100198.38
2022-08-07T02:12:18.192Z,100201.53
2022-08-07T02:14:46.105Z,100207.06
2022-08-07T02:17:24.761Z,100199.81
2022-08-07T02:20:07.617Z,100197.94
2022-08-07T02:22:37.311Z,100208.69
2022-08-07T02:25:07.164Z,100199.94
2022-08-07T02:27:37.162Z,100201.47
2022-08-07T02:30:07.473Z,100197.75
2022-08-07T02:32:32.792Z,100203.69
2022-08-07T02:34:55.954Z,100204.66
2022-08-07T02:37:22.339Z,100200.91
2022-08-07T02:40:11.673Z,100208.03
2022-08-07T02:42:30.425Z,100205.97
2022-08-07T02:44:54.983Z,100205.13
2022-08-07T02:47:23.571Z,100198.38
2022-08-07T02:49:57.414Z,100197.41
2022-08-07T02:52:32.141Z,100195.59
2022-08-07T02:54:56.006Z,100195.25
2022-08-07T02:57:19.645Z,100191.56
2022-08-07T03:00:00.839Z,100194.28
2022-08-07T03:02:28.567Z,100205.69
2022-08-07T03:04:52.280Z,100195.75
2022-08-07T03:07:16.744Z,100198.09
2022-08-07T03:09:48.237Z,100200.16
2022-08-07T03:12:21.657Z,100204.25
2022-08-07T03:14:52.115Z,100202.38
2022-08-07T03:17:16.168Z,100201.38
2022-08-07T03:19:40.171Z,100201.19
2022-08-07T03:22:06.113Z,100206.78
2022-08-07T03:24:30.132Z,100218.59
2022-08-07T03:26:59.496Z,100217.91
2022-08-07T03:29:28.714Z,100204.25
2022-08-07T03:31:53.510Z,100211.66
2022-08-07T03:34:22.165Z,100214.72
2022-08-07T03:36:52.847Z,100214.19
2022-08-07T03:39:17.475Z,100214.84
2022-08-07T03:42:00.844Z,100213.13
2022-08-07T03:44:31.811Z,100209.81
2022-08-07T03:47:13.506Z,100217.38
2022-08-07T03:49:39.667Z,100219.75
2022-08-07T03:52:05.716Z,100218.53
2022-08-07T03:54:36.344Z,100223.28
2022-08-07T03:58:33.428Z,100222.41
2022-08-07T04:00:02.587Z,100223.25
2022-08-07T04:02:29.010Z,100228.28
2022-08-07T04:04:53.003Z,100224.75
2022-08-07T04:07:17.696Z,100226.59
2022-08-07T04:09:45.465Z,100222.06
2022-08-07T04:12:26.826Z,100231.75
2022-08-07T04:14:52.951Z,100229.19
2022-08-07T04:17:21.451Z,100222.25
2022-08-07T04:19:54.561Z,100228.81
2022-08-07T04:22:22.947Z,100227.81
2022-08-07T04:24:47.057Z,100225.97
2022-08-07T04:27:20.468Z,100230.66
2022-08-07T04:30:01.459Z,100236.28
2022-08-07T04:32:35.674Z,100231.03
2022-08-07T04:35:01.818Z,100219.22
2022-08-07T04:37:28.805Z,100220.38
2022-08-07T04:39:52.473Z,100234.72
2022-08-07T04:42:16.168Z,100231.38
2022-08-07T04:44:54.350Z,100223.44
2022-08-07T04:48:01.446Z,100226.94
2022-08-07T04:50:09.388Z,100218.50
2022-08-07T04:52:51.011Z,100220.47
2022-08-07T04:58:11.029Z,100231.91
2022-08-07T04:58:13.068Z,100227.88
2022-08-07T05:00:56.514Z,100237.84
2022-08-07T05:03:38.793Z,100236.13
2022-08-07T05:06:16.663Z,100240.63
2022-08-07T05:09:00.700Z,100242.78
2022-08-07T05:11:58.704Z,100238.59
2022-08-07T05:14:52.440Z,100239.56
2022-08-07T05:16:57.952Z,100244.97
2022-08-07T05:19:32.637Z,100238.88
2022-08-07T05:22:10.152Z,100232.59
2022-08-07T05:24:40.644Z,100239.41
2022-08-07T05:27:04.992Z,100247.16
2022-08-07T05:29:48.034Z,100242.94
2022-08-07T05:32:11.618Z,100247.31
2022-08-07T05:34:34.622Z,100239.34
2022-08-07T05:36:58.017Z,100249.66
2022-08-07T05:40:13.425Z,100253.69
2022-08-07T05:42:34.654Z,100254.50
2022-08-07T05:45:14.081Z,100246.03
2022-08-07T05:48:01.830Z,100255.47
2022-08-07T05:50:33.944Z,100253.22
2022-08-07T05:52:56.949Z,100259.13
2022-08-07T05:55:21.625Z,100255.22
2022-08-07T05:57:46.336Z,100264.19
2022-08-07T06:00:16.013Z,100257.75
2022-08-07T06:02:46.297Z,100262.97
2022-08-07T06:05:15.567Z,100260.94
2022-08-07T06:08:14.775Z,100264.78
2022-08-07T06:10:25.757Z,100270.66
2022-08-07T06:12:49.143Z,100265.94
2022-08-07T06:15:15.990Z,100265.25
2022-08-07T06:17:41.208Z,100265.09
2022-08-07T06:20:32.079Z,100268.28
2022-08-07T06:23:04.112Z,100267.94
2022-08-07T06:25:54.355Z,100269.25
2022-08-07T06:28:18.454Z,100267.88
2022-08-07T06:30:52.962Z,100267.16
2022-08-07T06:33:18.001Z,100266.47
2022-08-07T06:35:45.543Z,100270.50
2022-08-07T06:38:19.953Z,100269.31
2022-08-07T06:40:49.957Z,100273.53
2022-08-07T06:43:21.229Z,100270.81
2022-08-07T06:46:01.525Z,100283.16
2022-08-07T06:48:25.448Z,100290.81
2022-08-07T06:50:48.820Z,100280.44
2022-08-07T06:53:18.809Z,100278.00
2022-08-07T06:56:00.856Z,100278.31
2022-08-07T06:58:28.760Z,100280.84
2022-08-07T07:00:58.521Z,100285.06
2022-08-07T07:03:26.451Z,100279.44
2022-08-07T07:06:06.297Z,100274.22
2022-08-07T07:08:34.519Z,100277.41
2022-08-07T07:10:57.917Z,100296.00
2022-08-07T07:13:55.348Z,100277.19
2022-08-07T07:16:09.070Z,100276.19
2022-08-07T07:18:47.967Z,100280.41
2022-08-07T07:21:13.477Z,100284.59
2022-08-07T07:24:08.028Z,100280.69
2022-08-07T07:26:35.579Z,100287.78
2022-08-07T07:29:57.507Z,100283.22
2022-08-07T07:31:46.586Z,100283.97
2022-08-07T07:34:10.547Z,100290.84
2022-08-07T07:36:40.496Z,100301.31
2022-08-07T07:39:03.905Z,100294.69
2022-08-07T07:41:31.034Z,100294.13
2022-08-07T07:44:14.568Z,100276.22
2022-08-07T07:46:57.277Z,100285.00
2022-08-07T07:50:35.668Z,100285.19
2022-08-07T07:52:09.428Z,100297.34
2022-08-07T07:54:33.103Z,100305.56
2022-08-07T07:56:57.290Z,100294.22
2022-08-07T07:59:51.681Z,100297.59
2022-08-07T08:02:10.532Z,100291.66
2022-08-07T08:04:34.004Z,100277.94
2022-08-07T08:07:00.567Z,100300.94
2022-08-07T08:09:29.201Z,100298.69
2022-08-07T08:12:03.250Z,100292.22
2022-08-07T08:14:29.483Z,100301.03
2022-08-07T08:16:52.780Z,100303.06
2022-08-07T08:20:23.137Z,100300.28
2022-08-07T08:22:17.723Z,100303.38
2022-08-07T08:25:18.615Z,100298.41
2022-08-07T08:27:55.978Z,100307.03
2022-08-07T08:30:21.361Z,100298.25
2022-08-07T08:32:49.059Z,100299.25
2022-08-07T08:35:13.430Z,100287.94
2022-08-07T08:38:01.208Z,100299.25
2022-08-07T08:40:28.573Z,100302.34
2022-08-07T08:42:53.834Z,100305.97
2022-08-07T08:45:19.506Z,100309.34
2022-08-07T08:47:52.317Z,100301.31
2022-08-07T08:50:34.918Z,100294.59
2022-08-07T08:53:04.633Z,100305.25
2022-08-07T08:55:54.914Z,100301.91
2022-08-07T08:58:13.258Z,100296.47
2022-08-07T09:00:48.347Z,100299.44
2022-08-07T09:03:16.649Z,100302.91
2022-08-07T09:05:44.861Z,100299.75
2022-08-07T09:08:12.560Z,100309.53
2022-08-07T09:10:48.247Z,100306.84
2022-08-07T09:13:15.001Z,100303.28
2022-08-07T09:16:25.688Z,100305.16
2022-08-07T09:18:35.006Z,100304.13
2022-08-07T09:21:02.594Z,100306.84
2022-08-07T09:24:32.925Z,100300.38
2022-08-07T09:26:17.176Z,100290.09
2022-08-07T09:30:05.813Z,100304.00
2022-08-07T09:31:38.470Z,100298.31
2022-08-07T09:34:08.237Z,100310.84
2022-08-07T09:36:35.792Z,100305.44
2022-08-07T09:39:06.338Z,100318.97
2022-08-07T09:42:03.066Z,100297.28
2022-08-07T09:44:46.566Z,100291.50
2022-08-07T09:47:51.178Z,100304.69
2022-08-07T09:50:18.625Z,100298.88
2022-08-07T09:52:43.864Z,100301.38
2022-08-07T09:55:16.994Z,100310.38
2022-08-07T09:58:15.914Z,100298.31
2022-08-07T10:00:44.907Z,100299.53
2022-08-07T10:04:04.883Z,100296.53
2022-08-07T10:06:17.973Z,100302.81
2022-08-07T10:09:06.239Z,100298.22
2022-08-07T10:12:02.402Z,100280.84
2022-08-07T10:14:30.337Z,100295.13
2022-08-07T10:17:13.419Z,100304.97
2022-08-07T10:19:41.963Z,100290.75
2022-08-07T10:22:24.939Z,100313.09
2022-08-07T10:25:12.575Z,100301.22
2022-08-07T10:27:46.164Z,100290.75
2022-08-07T10:30:12.241Z,100299.47
2022-08-07T10:32:52.646Z,100305.72
2022-08-07T10:35:20.403Z,100293.91
2022-08-07T10:38:15.458Z,100290.75
2022-08-07T10:40:38.834Z,100289.06
2022-08-07T10:43:03.713Z,100300.47
2022-08-07T10:45:45.084Z,100294.03
2022-08-07T10:48:35.220Z,100283.19
2022-08-07T10:50:59.610Z,100284.88
2022-08-07T10:53:41.970Z,100283.66
2022-08-07T10:56:11.163Z,100293.84
2022-08-07T10:58:59.375Z,100288.78
2022-08-07T11:01:35.186Z,100291.13
2022-08-07T11:04:31.455Z,100285.31
2022-08-07T11:06:56.745Z,100291.41
2022-08-07T11:10:07.077Z,100282.81
2022-08-07T11:12:08.354Z,100279.53
2022-08-07T11:14:44.398Z,100282.69
2022-08-07T11:17:23.568Z,100280.38
2022-08-07T11:20:03.567Z,100283.16
2022-08-07T11:22:38.224Z,100283.53
2022-08-07T11:25:12.603Z,100275.16
2022-08-07T11:28:03.283Z,100282.91
2022-08-07T11:30:29.087Z,100279.16
2022-08-07T11:33:08.070Z,100286.44
2022-08-07T11:35:59.831Z,100277.06
2022-08-07T11:38:22.107Z,100282.50
2022-08-07T11:40:57.077Z,100268.09
2022-08-07T11:43:29.451Z,100271.00
2022-08-07T11:46:07.818Z,100275.97
2022-08-07T11:48:40.569Z,100268.31
2022-08-07T11:51:10.728Z,100271.19
2022-08-07T11:54:01.771Z,100280.81
2022-08-07T11:56:43.118Z,100287.47
2022-08-07T12:00:07.814Z,100268.09
2022-08-07T12:01:59.643Z,100271.19
2022-08-07T12:04:39.562Z,100273.06
2022-08-07T12:07:10.145Z,100269.13
2022-08-07T12:09:46.116Z,100258.66
2022-08-07T12:12:12.203Z,100267.84
2022-08-07T12:14:37.822Z,100272.50
2022-08-07T12:17:01.890Z,100276.06
2022-08-07T12:19:35.526Z,100274.84
2022-08-07T12:22:37.310Z,100273.16
2022-08-07T12:26:21.961Z,100274.19
2022-08-07T12:28:09.233Z,100271.47
2022-08-07T12:30:34.299Z,100270.44
2022-08-07T12:32:59.594Z,100261.84
2022-08-07T12:35:24.045Z,100255.59
2022-08-07T12:38:10.016Z,100256.25
2022-08-07T12:40:48.921Z,100253.31
2022-08-07T12:44:02.110Z,100256.75
2022-08-07T12:46:01.225Z,100244.47
2022-08-07T12:48:41.363Z,100262.78
2022-08-07T12:51:17.714Z,100256.75
2022-08-07T12:54:02.763Z,100254.66
2022-08-07T12:56:26.750Z,100253.31
2022-08-07T12:58:53.281Z,100250.44
2022-08-07T13:01:28.210Z,100249.63
2022-08-07T13:04:31.627Z,100256.34
2022-08-07T13:07:18.004Z,100258.66
2022-08-07T13:10:38.050Z,100248.84
2022-08-07T13:13:03.569Z,100252.84
2022-08-07T13:15:31.984Z,100246.59
2022-08-07T13:17:59.371Z,100252.22
2022-08-07T13:20:27.527Z,100248.09
2022-08-07T13:22:52.671Z,100246.22
2022-08-07T13:25:29.029Z,100244.16
2022-08-07T13:28:12.413Z,100251.00
2022-08-07T13:30:40.285Z,100244.56
2022-08-07T13:34:30.878Z,100249.75
2022-08-07T13:36:01.372Z,100249.22
2022-08-07T13:38:29.186Z,100249.38
2022-08-07T13:40:56.130Z,100254.19
2022-08-07T13:43:22.541Z,100251.09
2022-08-07T13:46:10.873Z,100243.84
2022-08-07T13:48:34.731Z,100260.97
2022-08-07T13:51:01.758Z,100246.44
2022-08-07T13:53:59.651Z,100248.03
2022-08-07T13:56:20.208Z,100255.25
2022-08-07T13:59:02.318Z,100246.97
2022-08-07T14:01:33.345Z,100240.19
2022-08-07T14:04:14.251Z,100245.78
2022-08-07T14:06:39.003Z,100249.53
2022-08-07T14:09:04.528Z,100249.16
2022-08-07T14:11:29.157Z,100242.44
2022-08-07T14:14:12.716Z,100239.72
2022-08-07T14:16:41.461Z,100245.31
2022-08-07T14:19:17.857Z,100247.03
2022-08-07T14:22:02.997Z,100246.72
2022-08-07T14:24:34.585Z,100257.56
2022-08-07T14:26:58.941Z,100257.94
2022-08-07T14:30:07.539Z,100240.63
2022-08-07T14:32:09.617Z,100248.09
2022-08-07T14:34:45.753Z,100247.66
2022-08-07T14:37:16.105Z,100252.53
2022-08-07T14:40:17.552Z,100243.72
2022-08-07T14:42:31.242Z,100262.13
2022-08-07T14:44:59.777Z,100246.44
2022-08-07T14:47:25.879Z,100250.19
2022-08-07T14:49:59.403Z,100243.47
2022-08-07T14:55:05.908Z,100247.59
2022-08-07T14:57:58.584Z,100247.59
2022-08-07T15:00:29.658Z,100241.53
2022-08-07T15:02:56.655Z,100242.53
2022-08-07T15:05:23.453Z,100257.59
2022-08-07T15:10:30.541Z,100244.03
2022-08-07T15:12:54.940Z,100251.34
2022-08-07T15:15:23.762Z,100238.59
2022-08-07T15:20:54.586Z,100251.53
2022-08-07T15:25:59.959Z,100246.28
2022-08-07T15:28:32.950Z,100250.88
2022-08-07T15:31:05.778Z,100254.44
2022-08-07T15:33:33.394Z,100262.41
2022-08-07T15:38:58.507Z,100259.84
2022-08-07T15:44:07.352Z,100258.34
2022-08-07T15:49:15.154Z,100254.63
2022-08-07T15:54:21.032Z,100254.63
2022-08-07T15:56:48.277Z,100258.56
2022-08-07T15:59:16.492Z,100262.13
2022-08-07T16:01:40.529Z,100247.72
2022-08-07T16:04:03.849Z,100262.94
2022-08-07T16:06:40.219Z,100264.81
2022-08-07T16:09:03.928Z,100269.41
2022-08-07T16:11:41.506Z,100269.41
2022-08-07T16:14:08.990Z,100266.03
2022-08-07T16:16:57.212Z,100274.84
2022-08-07T16:19:42.531Z,100277.94
2022-08-07T16:22:54.463Z,100279.59
2022-08-07T16:25:54.935Z,100275.22
2022-08-07T16:30:07.438Z,100276.25
2022-08-07T16:30:58.118Z,100282.31
2022-08-07T16:34:01.437Z,100279.81
2022-08-07T16:36:22.274Z,100287.09
2022-08-07T16:39:06.090Z,100286.44
2022-08-07T16:41:54.143Z,100288.31
2022-08-07T16:44:46.967Z,100284.41
2022-08-07T16:47:49.668Z,100287.56
2022-08-07T16:50:37.215Z,100290.06
2022-08-07T16:53:20.634Z,100291.28
2022-08-07T16:55:53.537Z,100293.44
2022-08-07T16:58:17.771Z,100292.16
2022-08-07T17:00:42.728Z,100295.25
2022-08-07T17:03:11.163Z,100296.09
2022-08-07T17:06:29.001Z,100295.41
2022-08-07T17:09:09.277Z,100294.59
2022-08-07T17:11:27.946Z,100294.97
2022-08-07T17:14:18.502Z,100296.63
2022-08-07T17:16:45.838Z,100291.22
2022-08-07T17:20:00.726Z,100294.31
2022-08-07T17:22:07.200Z,100299.75
2022-08-07T17:24:37.386Z,100303.84
2022-08-07T17:27:05.312Z,100303.19
2022-08-07T17:30:14.385Z,100312.16
2022-08-07T17:32:52.460Z,100313.00
2022-08-07T17:35:51.369Z,100318.63
2022-08-07T17:38:05.854Z,100319.16
2022-08-07T17:40:36.011Z,100317.50
2022-08-07T17:43:03.517Z,100330.84
2022-08-07T17:45:39.312Z,100333.38
2022-08-07T17:48:11.093Z,100332.72
2022-08-07T17:50:42.544Z,100335.63
2022-08-07T17:53:23.542Z,100337.03
2022-08-07T17:56:06.105Z,100343.66
2022-08-07T17:58:34.277Z,100343.00
2022-08-07T18:00:57.790Z,100347.38
2022-08-07T18:03:25.534Z,100353.84
2022-08-07T18:06:03.435Z,100355.06
2022-08-07T18:08:31.207Z,100365.44
2022-08-07T18:11:53.741Z,100358.34
2022-08-07T18:13:40.758Z,100359.84
2022-08-07T18:16:05.140Z,100370.03
2022-08-07T18:18:46.224Z,100359.19
2022-08-07T18:21:37.188Z,100369.84
2022-08-07T18:24:01.978Z,100375.44
2022-08-07T18:26:40.658Z,100368.16
2022-08-07T18:29:05.368Z,100370.84
2022-08-07T18:31:51.221Z,100370.22
2022-08-07T18:34:37.598Z,100375.34
2022-08-07T18:37:09.367Z,100377.41
2022-08-07T18:40:07.124Z,100376.84
2022-08-07T18:42:27.775Z,100377.69
2022-08-07T18:47:44.475Z,100377.69
2022-08-07T18:50:40.463Z,100382.47
2022-08-07T18:53:12.847Z,100390.75
2022-08-07T18:55:42.408Z,100396.75
2022-08-07T18:58:15.119Z,100394.22
2022-08-07T19:00:43.741Z,100399.47
2022-08-07T19:03:18.963Z,100399.25
2022-08-07T19:06:04.760Z,100399.63
2022-08-07T19:08:30.157Z,100403.19
2022-08-07T19:10:59.520Z,100397.94
2022-08-07T19:13:24.741Z,100403.19
2022-08-07T19:16:02.582Z,100402.16
2022-08-07T19:18:34.842Z,100403.19
2022-08-07T19:21:08.960Z,100402.91
2022-08-07T19:23:58.394Z,100399.16
2022-08-07T19:26:23.929Z,100394.56
2022-08-07T19:30:54.294Z,100399.72
2022-08-07T19:32:08.035Z,100394.09
2022-08-07T19:34:33.755Z,100398.88
2022-08-07T19:37:10.194Z,100402.59
2022-08-07T19:39:57.389Z,100397.00
2022-08-07T19:42:24.477Z,100401.75
2022-08-07T19:44:48.359Z,100401.59
2022-08-07T19:47:11.987Z,100398.22
2022-08-07T19:49:57.703Z,100398.22
2022-08-07T19:52:26.009Z,100399.06
2022-08-07T19:54:56.194Z,100395.69
2022-08-07T19:58:00.184Z,100401.97
2022-08-07T20:00:10.126Z,100402.78
2022-08-07T20:02:34.572Z,100402.31
2022-08-07T20:04:58.012Z,100409.63
2022-08-07T20:07:46.364Z,100411.75
2022-08-07T20:10:37.234Z,100402.97
2022-08-07T20:12:53.937Z,100405.66
2022-08-07T20:15:22.118Z,100407.06
2022-08-07T20:17:45.562Z,100405.19
2022-08-07T20:20:26.715Z,100410.63
2022-08-07T20:22:59.203Z,100407.91
2022-08-07T20:25:24.418Z,100409.13
2022-08-07T20:27:54.034Z,100403.31
2022-08-07T20:30:21.853Z,100397.06
2022-08-07T20:32:46.662Z,100399.78
2022-08-07T20:35:11.469Z,100404.84
2022-08-07T20:37:58.249Z,100414.28
2022-08-07T20:40:32.830Z,100409.88
2022-08-07T20:42:57.983Z,100415.16
2022-08-07T20:45:33.208Z,100415.31
2022-08-07T20:48:05.921Z,100412.13
2022-08-07T20:50:31.933Z,100418.38
2022-08-07T20:52:55.156Z,100420.94
2022-08-07T20:55:23.605Z,100418.56
2022-08-07T20:58:03.401Z,100420.72
2022-08-07T21:00:31.833Z,100419.59
2022-08-07T21:03:02.057Z,100419.41
2022-08-07T21:05:51.380Z,100423.03
2022-08-07T21:08:09.278Z,100416.88
2022-08-07T21:10:33.024Z,100421.66
2022-08-07T21:12:59.174Z,100426.88
2022-08-07T21:15:47.568Z,100426.22
2022-08-07T21:18:20.536Z,100432.84
2022-08-07T21:20:56.082Z,100427.22
2022-08-07T21:23:20.930Z,100431.66
2022-08-07T21:25:56.932Z,100427.44
2022-08-07T21:28:48.324Z,100432.19
2022-08-07T21:31:10.402Z,100431.19
2022-08-07T21:33:41.358Z,100433.22
2022-08-07T21:36:11.959Z,100419.88
2022-08-07T21:38:54.970Z,100426.81
2022-08-07T21:41:20.438Z,100433.41
2022-08-07T21:43:56.674Z,100435.25
2022-08-07T21:46:25.285Z,100434.25
2022-08-07T21:48:57.550Z,100426.97
2022-08-07T21:51:25.170Z,100437.28
2022-08-07T21:53:53.005Z,100437.28
2022-08-07T21:56:36.253Z,100430.00
2022-08-07T21:59:02.411Z,100435.41
2022-08-07T22:02:07.451Z,100438.31
2022-08-07T22:04:10.541Z,100433.03
2022-08-07T22:06:34.792Z,100442.09
2022-08-07T22:09:00.905Z,100441.31
2022-08-07T22:11:30.809Z,100444.81
2022-08-07T22:14:15.067Z,100433.13
2022-08-07T22:16:48.370Z,100438.72
2022-08-07T22:19:20.119Z,100441.44
2022-08-07T22:22:05.343Z,100438.38
2022-08-07T22:24:38.786Z,100437.22
2022-08-07T22:27:03.642Z,100447.81
2022-08-07T22:29:37.931Z,100447.69
2022-08-07T22:32:12.671Z,100440.00
2022-08-07T22:34:49.465Z,100443.50
2022-08-07T22:37:18.208Z,100446.91
2022-08-07T22:39:53.466Z,100440.81
2022-08-07T22:42:19.031Z,100441.84
2022-08-07T22:45:21.758Z,100436.97
2022-08-07T22:48:04.270Z,100439.50
2022-08-07T22:50:47.676Z,100441.19
2022-08-07T22:53:19.986Z,100440.06
2022-08-07T22:56:03.091Z,100447.78
2022-08-07T22:58:29.250Z,100448.31
2022-08-07T23:00:55.941Z,100458.75
2022-08-07T23:03:28.258Z,100452.72
2022-08-07T23:06:09.520Z,100457.53
2022-08-07T23:08:58.541Z,100462.59
2022-08-07T23:11:46.034Z,100460.44
2022-08-07T23:14:18.938Z,100456.25
2022-08-07T23:16:54.931Z,100455.78
2022-08-07T23:19:51.302Z,100458.97
2022-08-07T23:22:18.394Z,100456.28
2022-08-07T23:24:45.529Z,100452.59
2022-08-07T23:27:33.644Z,100463.41
2022-08-07T23:30:35.866Z,100448.19
2022-08-07T23:34:34.332Z,100450.41
2022-08-07T23:35:55.099Z,100444.16
2022-08-07T23:38:36.901Z,100437.75
2022-08-07T23:41:08.693Z,100448.41
2022-08-07T23:43:44.572Z,100454.16
2022-08-07T23:46:13.631Z,100444.72
2022-08-07T23:49:04.413Z,100444.56
2022-08-07T23:52:58.661Z,100448.31
2022-08-07T23:54:19.849Z,100443.75
2022-08-07T23:57:00.625Z,100454.06
